»·PEaware :: VRD131 KGEG-KPDX

VRD131 :: KGEG-KPDX

FLIGHT INFORMATION

Flight Status: Arrived
Operator:
Virgin America
More flights by this operator :: More flights under this callsign
Pilot: Anonymous 17611 (17611)
Aircraft: AIRBUS A320
(A320)
More flights by this aircraft type
Origin: KGEG Spokane Intl
United States
Destination: KPDX Portland Intl
United States
More flights between these airports :: More routes between these airports
Route: ZEGRO JORAD HHOOD4
File this flight plan on PilotEdge
Remarks:
Altitude:
(Current/Filed)
28,000ft
Speed:
(Current/Filed)
415kts
Departed: 17-May-18 04:59 PM
Arrived: 17-May-18 05:53 PM
Distance/Time
Traveled:
241nm/0:53
Distance/Time
To Go:
Arrived

Flight Plot

Page will automatically refresh every two minutes.

Flight plan parsing failed; only flown route is shown


Map Options




Map Legend


Flown Route
Filed Route
Departure Airport
Arrival Airport
Navaid (VOR, NDB)
Fix

Horizontal Profiles

Position Reports

Time Latitude Longitude Heading Altitude Ground
Speed
17-May-18 16:24 47.624348 -117.535542 322 2363ft 0kts
17-May-18 16:25 47.624348 -117.535542 322 2363ft 0kts
17-May-18 16:26 47.624348 -117.535542 322 2363ft 0kts
17-May-18 16:27 47.624348 -117.535542 322 2363ft 0kts
17-May-18 16:28 47.624348 -117.535542 322 2363ft 0kts
17-May-18 16:29 47.624348 -117.535542 322 2363ft 0kts
17-May-18 16:30 47.624348 -117.535542 322 2363ft 0kts
17-May-18 16:31 47.624348 -117.535542 322 2363ft 0kts
17-May-18 16:32 47.624348 -117.535542 322 2363ft 0kts
17-May-18 16:33 47.624348 -117.535542 322 2363ft 0kts
17-May-18 16:34 47.624348 -117.535542 322 2363ft 0kts
17-May-18 16:35 47.624348 -117.535542 322 2363ft 0kts
17-May-18 16:36 47.624348 -117.535542 322 2363ft 0kts
17-May-18 16:37 47.624348 -117.535542 322 2363ft 0kts
17-May-18 16:38 47.624348 -117.535542 322 2363ft 0kts
17-May-18 16:39 47.624348 -117.535542 322 2363ft 0kts
17-May-18 16:40 47.624348 -117.535542 322 2363ft 0kts
17-May-18 16:41 47.624348 -117.535542 322 2363ft 0kts
17-May-18 16:42 47.624348 -117.535542 322 2363ft 0kts
17-May-18 16:43 47.624348 -117.535542 322 2363ft 0kts
17-May-18 16:44 47.624348 -117.535542 322 2363ft 0kts
17-May-18 16:45 47.624348 -117.535542 322 2363ft 0kts
17-May-18 16:46 47.624348 -117.535542 322 2363ft 0kts
17-May-18 16:47 47.624348 -117.535542 322 2363ft 0kts
17-May-18 16:48 47.624348 -117.535542 322 2363ft 0kts
17-May-18 16:49 47.624348 -117.535542 322 2363ft 0kts
17-May-18 16:50 47.624178 -117.535173 270 2362ft 2kts
17-May-18 16:51 47.624295 -117.534803 224 2362ft 0kts
17-May-18 16:52 47.624295 -117.534804 224 2362ft 0kts
17-May-18 16:53 47.624295 -117.534804 224 2362ft 0kts
17-May-18 16:54 47.624090 -117.535079 216 2362ft 9kts
17-May-18 16:55 47.619653 -117.539702 225 2369ft 23kts
17-May-18 16:56 47.614980 -117.546745 223 2378ft 27kts
17-May-18 16:57 47.611586 -117.551665 195 2385ft 0kts
17-May-18 16:58 47.611293 -117.551588 147 2385ft 5kts
17-May-18 16:59 47.613896 -117.544334 44 2380ft 107kts
17-May-18 17:00 47.644366 -117.498910 44 4677ft 177kts
17-May-18 17:01 47.684881 -117.438283 44 6610ft 259kts
17-May-18 17:02 47.735875 -117.361913 43 9706ft 283kts
17-May-18 17:03 47.785032 -117.277972 67 11526ft 339kts
17-May-18 17:04 47.756697 -117.151855 144 13213ft 393kts
17-May-18 17:05 47.662007 -117.149660 215 15273ft 403kts
17-May-18 17:06 47.606710 -117.272816 254 17321ft 400kts
17-May-18 17:07 47.576626 -117.425078 256 19276ft 407kts
17-May-18 17:08 47.546626 -117.579504 256 21005ft 414kts
17-May-18 17:09 47.510845 -117.718343 234 22419ft 426kts
17-May-18 17:10 47.445758 -117.830390 232 23723ft 432kts
17-May-18 17:11 47.372189 -117.965034 232 25083ft 439kts
17-May-18 17:12 47.298239 -118.099831 232 26309ft 445kts
17-May-18 17:13 47.227147 -118.228819 232 27351ft 450kts
17-May-18 17:14 47.150298 -118.367548 231 28066ft 447kts
17-May-18 17:15 47.072766 -118.506831 231 28008ft 450kts
17-May-18 17:16 46.993706 -118.648136 231 27984ft 453kts
17-May-18 17:17 46.923152 -118.773641 231 27986ft 459kts
17-May-18 17:18 46.853221 -118.897451 231 27995ft 464kts
17-May-18 17:19 46.771171 -119.042010 232 27982ft 468kts
17-May-18 17:20 46.688036 -119.187712 232 27977ft 472kts
17-May-18 17:21 46.604848 -119.332719 232 27987ft 472kts
17-May-18 17:22 46.521164 -119.477827 232 27967ft 472kts
17-May-18 17:23 46.438358 -119.620667 232 27945ft 471kts
17-May-18 17:24 46.362154 -119.751482 231 27933ft 470kts
17-May-18 17:25 46.279609 -119.892474 231 27932ft 470kts
17-May-18 17:26 46.195105 -120.036072 232 27935ft 471kts
17-May-18 17:27 46.110604 -120.178918 231 27944ft 471kts
17-May-18 17:28 46.026275 -120.320706 231 27664ft 459kts
17-May-18 17:29 45.945093 -120.456500 232 26715ft 448kts
17-May-18 17:30 45.868244 -120.584480 231 25252ft 433kts
17-May-18 17:31 45.806581 -120.717525 250 23108ft 416kts
17-May-18 17:32 45.766973 -120.862676 250 20903ft 407kts
17-May-18 17:33 45.726790 -121.008638 250 18666ft 396kts
17-May-18 17:34 45.687709 -121.149830 251 16467ft 383kts
17-May-18 17:35 45.649301 -121.287607 250 14354ft 369kts
17-May-18 17:36 45.613327 -121.415775 250 13197ft 331kts
17-May-18 17:37 45.587158 -121.509445 250 11974ft 320kts
17-May-18 17:38 45.559617 -121.607842 250 10578ft 312kts
17-May-18 17:39 45.531724 -121.708093 257 9729ft 284kts
17-May-18 17:40 45.533066 -121.813517 274 8499ft 272kts
17-May-18 17:41 45.536843 -121.918830 274 8136ft 280kts
17-May-18 17:42 45.532022 -122.017300 264 8137ft 233kts
17-May-18 17:43 45.524106 -122.098426 264 8137ft 182kts
17-May-18 17:44 45.518103 -122.155693 264 8116ft 151kts
17-May-18 17:45 45.512122 -122.212103 264 7988ft 146kts
17-May-18 17:46 45.506477 -122.266062 264 6466ft 147kts
17-May-18 17:47 45.501312 -122.324749 266 4234ft 176kts
17-May-18 17:48 45.510845 -122.379597 301 2969ft 139kts
17-May-18 17:49 45.528685 -122.425637 300 2262ft 138kts
17-May-18 17:50 45.546135 -122.470568 300 1579ft 136kts
17-May-18 17:51 45.562052 -122.511506 300 951ft 133kts
17-May-18 17:52 45.578580 -122.553971 300 253ft 129kts
17-May-18 17:53 45.591340 -122.586746 300 26ft 35kts
17-May-18 17:54 45.591883 -122.592495 241 26ft 12kts

Navigation Log

Ident Type
Flight plan parsing failed, navigation log unavailable